createdAt,value
2023-04-26T00:01:14.815Z,91.27
2023-04-26T00:03:16.233Z,91.01
2023-04-26T00:07:19.687Z,91.38
2023-04-26T00:09:20.941Z,91.66
2023-04-26T00:13:24.443Z,91.96
2023-04-26T00:17:27.125Z,91.75
2023-04-26T00:19:29.213Z,91.78
2023-04-26T00:23:32.939Z,92.01
2023-04-26T00:25:34.428Z,92.61
2023-04-26T00:29:38.282Z,92.51
2023-04-26T00:33:41.206Z,92.92
2023-04-26T00:35:42.851Z,92.91
2023-04-26T00:39:45.196Z,92.72
2023-04-26T00:43:48.123Z,92.74
2023-04-26T00:45:50.066Z,93.25
2023-04-26T00:49:53.094Z,93.61
2023-04-26T00:51:54.351Z,93.84
2023-04-26T00:55:57.884Z,92.88
2023-04-26T01:00:00.665Z,91.5
2023-04-26T01:02:01.986Z,91.9
2023-04-26T01:06:05.913Z,91.84
2023-04-26T01:08:07.433Z,91.76
2023-04-26T01:12:10.925Z,92.3
2023-04-26T01:16:13.886Z,92.99
2023-04-26T01:21:02.804Z,93.08
2023-04-26T01:23:02.507Z,93.03
2023-04-26T01:27:13.968Z,93.02
2023-04-26T01:29:07.151Z,93.01
2023-04-26T01:33:09.850Z,93.22
2023-04-26T01:37:13.241Z,93.28
2023-04-26T01:39:14.660Z,93.58
2023-04-26T01:43:17.268Z,94.43
2023-04-26T01:45:18.983Z,94.42
2023-04-26T01:49:22.166Z,94.26
2023-04-26T01:53:25.100Z,94.34
2023-04-26T01:55:26.969Z,94.44
2023-04-26T01:59:29.939Z,94.64
2023-04-26T02:01:31.501Z,95.05
2023-04-26T02:03:33.120Z,95.11
2023-04-26T02:05:34.465Z,95.05
2023-04-26T02:09:37.375Z,94.93
2023-04-26T02:11:38.633Z,94.94
2023-04-26T02:15:41.752Z,95
2023-04-26T02:17:42.829Z,94.9
2023-04-26T02:21:46.815Z,95.36
2023-04-26T02:23:48.307Z,95.71
2023-04-26T02:25:49.629Z,95.73
2023-04-26T02:27:51.484Z,95.76
2023-04-26T02:31:55.216Z,96.4
2023-04-26T02:33:57.049Z,96.21
2023-04-26T02:37:59.685Z,96.22
2023-04-26T02:42:02.936Z,96.29
2023-04-26T02:44:04.831Z,96.28
2023-04-26T02:48:07.579Z,96.33
2023-04-26T02:52:10.654Z,96.4
2023-04-26T02:54:12.713Z,96.34
2023-04-26T02:58:15.794Z,96.61
2023-04-26T03:00:17.215Z,96.71
2023-04-26T03:04:21.133Z,96.73
2023-04-26T03:08:23.512Z,96.69
2023-04-26T03:10:24.966Z,96.83
2023-04-26T03:14:27.744Z,96.62
2023-04-26T03:16:29.020Z,96.58
2023-04-26T03:20:31.410Z,96.9
2023-04-26T03:24:34.486Z,96.94
2023-04-26T03:26:35.770Z,96.82
2023-04-26T03:30:39.611Z,96.8
2023-04-26T03:34:43.382Z,96.88
2023-04-26T03:36:46.413Z,97.1
2023-04-26T03:40:47.753Z,97.18
2023-04-26T03:42:49.628Z,97.16
2023-04-26T03:46:52.647Z,97.01
2023-04-26T03:50:56.156Z,97.26
2023-04-26T03:52:57.945Z,97.58
2023-04-26T03:57:01.906Z,97.62
2023-04-26T03:59:03.214Z,97.53
2023-04-26T04:03:06.120Z,97.35
2023-04-26T04:07:08.214Z,97.14
2023-04-26T04:09:09.680Z,97.25
2023-04-26T04:13:12.906Z,97.59
2023-04-26T04:17:16.130Z,97.62
2023-04-26T04:19:17.918Z,97.65
2023-04-26T04:23:20.468Z,97.68
2023-04-26T04:25:21.803Z,97.73
2023-04-26T04:29:24.831Z,97.78
2023-04-26T04:33:27.964Z,97.9
2023-04-26T04:35:29.295Z,97.92
2023-04-26T04:39:32.123Z,98.08
2023-04-26T04:41:34.074Z,98.11
2023-04-26T04:45:37.418Z,98.02
2023-04-26T04:49:40.943Z,98.07
2023-04-26T04:51:42.223Z,98.07
2023-04-26T04:55:46.046Z,98.45
2023-04-26T04:59:49.079Z,98.71
2023-04-26T05:01:50.388Z,95.46
2023-04-26T05:05:53.926Z,92.26
2023-04-26T05:07:55.817Z,92.13
2023-04-26T05:11:58.842Z,91.07
2023-04-26T05:16:01.770Z,86.63
2023-04-26T05:18:02.949Z,86.73
2023-04-26T05:22:06.249Z,88.46
2023-04-26T05:24:07.575Z,86.34
2023-04-26T05:28:10.461Z,84.05
2023-04-26T05:32:14.074Z,82.05
2023-04-26T05:34:15.689Z,80.66
2023-04-26T05:38:18.728Z,83.45
2023-04-26T05:42:21.733Z,84.29
2023-04-26T05:44:23.129Z,82.92
2023-04-26T05:48:26.136Z,83.05
2023-04-26T05:50:27.888Z,79.42
2023-04-26T05:54:30.364Z,77.07
2023-04-26T05:58:33.334Z,75.67
2023-04-26T06:00:34.698Z,74.22
2023-04-26T06:04:38.591Z,75.9
2023-04-26T06:06:39.866Z,75.39
2023-04-26T06:10:42.468Z,74.68
2023-04-26T06:14:45.215Z,72.41
2023-04-26T06:16:46.846Z,74.09
2023-04-26T06:20:50.474Z,73.99
2023-04-26T06:24:53.305Z,72.2
2023-04-26T06:26:54.580Z,71.16
2023-04-26T06:30:58.087Z,71.19
2023-04-26T06:32:59.682Z,70.49
2023-04-26T06:35:01.130Z,70.07
2023-04-26T06:37:02.303Z,71.53
2023-04-26T06:41:04.946Z,70.67
2023-04-26T06:43:06.393Z,74.49
2023-04-26T06:45:07.421Z,72.97
2023-04-26T06:47:09.244Z,74.92
2023-04-26T06:49:10.392Z,75.66
2023-04-26T06:53:13.855Z,73.82
2023-04-26T06:55:15.128Z,75.62
2023-04-26T06:57:16.110Z,75.75
2023-04-26T06:59:17.361Z,73.9
2023-04-26T07:03:20.340Z,67.16
2023-04-26T07:05:21.507Z,64.62
2023-04-26T07:09:23.798Z,66.16
2023-04-26T07:13:26.877Z,64.28
2023-04-26T07:15:28.245Z,61.25
2023-04-26T07:19:30.799Z,59.53
2023-04-26T07:23:32.980Z,60.55
2023-04-26T07:25:34.072Z,59.15
2023-04-26T07:29:37.398Z,61.2
2023-04-26T07:31:38.414Z,58.39
2023-04-26T07:35:41.185Z,58.53
2023-04-26T07:39:43.833Z,58.14
2023-04-26T07:41:45.466Z,61.35
2023-04-26T07:45:48.216Z,56.57
2023-04-26T07:47:50.344Z,55.17
2023-04-26T07:51:53.401Z,53.65
2023-04-26T07:55:56.076Z,50.5
2023-04-26T07:57:57.016Z,48.22
2023-04-26T08:01:59.336Z,45.65
2023-04-26T08:06:45.608Z,49.08
2023-04-26T08:08:47.012Z,47.95
2023-04-26T08:12:49.324Z,47.13
2023-04-26T08:16:51.723Z,51.52
2023-04-26T08:18:53.432Z,51.98
2023-04-26T08:20:54.306Z,52.26
2023-04-26T08:22:55.781Z,47.1
2023-04-26T08:24:57.111Z,47.31
2023-04-26T08:28:59.440Z,46.58
2023-04-26T08:31:00.862Z,47.61
2023-04-26T08:33:01.915Z,48.67
2023-04-26T08:35:02.953Z,48.59
2023-04-26T08:39:15.104Z,47.18
2023-04-26T08:41:07.867Z,45.95
2023-04-26T08:45:10.305Z,45.6
2023-04-26T08:49:13.423Z,43.16
2023-04-26T08:51:15.024Z,44.37
2023-04-26T08:55:18.135Z,46.01
2023-04-26T08:59:21.401Z,51.12
2023-04-26T09:01:22.819Z,44.81
2023-04-26T09:05:25.265Z,46.63
2023-04-26T09:07:26.211Z,46.95
2023-04-26T09:11:28.638Z,47.5
2023-04-26T09:15:32.220Z,47.49
2023-04-26T09:17:33.428Z,47.37
2023-04-26T09:21:35.916Z,46.06
2023-04-26T09:23:37.391Z,44.8
2023-04-26T09:27:39.976Z,47.48
2023-04-26T09:31:42.833Z,50.09
2023-04-26T09:33:44.636Z,48.67
2023-04-26T09:37:57.890Z,45.72
2023-04-26T09:41:51.069Z,45.9
2023-04-26T09:43:52.063Z,47.36
2023-04-26T09:47:53.994Z,45.32
2023-04-26T09:49:55.015Z,45.52
2023-04-26T09:53:57.705Z,49.3
2023-04-26T09:57:59.730Z,46.48
2023-04-26T10:00:00.829Z,46.55
2023-04-26T10:04:03.516Z,47.15
2023-04-26T10:06:05.181Z,47.18
2023-04-26T10:10:07.568Z,52.69
2023-04-26T10:14:09.691Z,47.75
2023-04-26T10:16:10.745Z,48.16
2023-04-26T10:20:13.194Z,49.57
2023-04-26T10:26:17.906Z,44.05
2023-04-26T10:30:20.847Z,42.46
2023-04-26T10:32:22.592Z,45.21
2023-04-26T10:34:23.888Z,44.28
2023-04-26T10:36:24.783Z,46.23
2023-04-26T10:40:28.068Z,45.2
2023-04-26T10:42:29.706Z,45.57
2023-04-26T10:44:31.520Z,44.88
2023-04-26T10:46:32.785Z,44.26
2023-04-26T10:48:33.963Z,42.49
2023-04-26T10:52:45.930Z,41.71
2023-04-26T10:54:38.727Z,45.56
2023-04-26T10:56:39.745Z,44.87
2023-04-26T10:58:40.836Z,44.63
2023-04-26T11:02:43.141Z,43.95
2023-04-26T11:04:44.359Z,43.99
2023-04-26T11:08:46.439Z,41.75
2023-04-26T11:12:49.521Z,41.85
2023-04-26T11:14:50.623Z,42.72
2023-04-26T11:18:53.674Z,43.69
2023-04-26T11:22:56.237Z,52.32
2023-04-26T11:24:57.365Z,44.87
2023-04-26T11:29:00.034Z,49.63
2023-04-26T11:31:01.266Z,43.52
2023-04-26T11:35:03.868Z,44.62
2023-04-26T11:39:06.438Z,42.53
2023-04-26T11:41:07.453Z,43.38
2023-04-26T11:45:10.810Z,43.12
2023-04-26T11:47:12.027Z,41.86
2023-04-26T11:51:14.948Z,42.47
2023-04-26T11:55:16.978Z,43.85
2023-04-26T11:57:18.394Z,46.79
2023-04-26T12:01:20.982Z,47
2023-04-26T12:05:24.516Z,44.6
2023-04-26T12:07:25.343Z,47.79
2023-04-26T12:11:27.880Z,47.87
2023-04-26T12:13:28.838Z,43.61
2023-04-26T12:15:30.114Z,46.97
2023-04-26T12:17:31.833Z,43.25
2023-04-26T12:21:35.140Z,42
2023-04-26T12:23:36.101Z,42.67
2023-04-26T12:27:38.972Z,44.2
2023-04-26T12:29:39.834Z,43.12
2023-04-26T12:33:42.817Z,43.95
2023-04-26T12:37:54.995Z,43.38
2023-04-26T12:39:46.991Z,42.02
2023-04-26T12:43:49.162Z,42.59
2023-04-26T12:49:53.391Z,50.31
2023-04-26T12:53:56.180Z,43.32
2023-04-26T12:55:57.088Z,42.43
2023-04-26T12:57:58.680Z,41.53
2023-04-26T13:00:00.005Z,44.81
2023-04-26T13:04:02.902Z,42.84
2023-04-26T13:06:03.928Z,42.04
2023-04-26T13:10:07.189Z,43.55
2023-04-26T13:12:09.675Z,41.34
2023-04-26T13:16:11.356Z,42.87
2023-04-26T13:20:13.838Z,40.35
2023-04-26T13:22:15.327Z,45.05
2023-04-26T13:26:18.217Z,41.9
2023-04-26T13:28:19.776Z,43.07
2023-04-26T13:32:22.608Z,50.97
2023-04-26T13:36:25.250Z,44.7
2023-04-26T13:38:26.953Z,43.03
2023-04-26T13:42:28.518Z,42.5
2023-04-26T13:46:31.374Z,42.19
2023-04-26T13:48:31.920Z,41.44
2023-04-26T13:52:34.370Z,44.25
2023-04-26T13:54:35.575Z,47.1
2023-04-26T13:58:39.093Z,44.99
2023-04-26T14:02:42.038Z,43.32
2023-04-26T14:04:43.848Z,42.22
2023-04-26T14:08:46.460Z,43.62
2023-04-26T14:10:48.106Z,42.82
2023-04-26T14:14:51.469Z,42.62
2023-04-26T14:18:54.093Z,38.74
2023-04-26T14:21:05.034Z,41.95
2023-04-26T14:24:58.503Z,45.38
2023-04-26T14:29:01.120Z,45.3
2023-04-26T14:31:03.379Z,47.61
2023-04-26T14:35:05.818Z,43.74
2023-04-26T14:37:05.973Z,44.19
2023-04-26T14:41:08.382Z,47.08
2023-04-26T14:45:12.467Z,44.04
2023-04-26T14:47:12.481Z,42.51
2023-04-26T14:49:57.181Z,45.79
2023-04-26T14:51:58.258Z,43.46
2023-04-26T14:53:59.532Z,44.38
2023-04-26T14:56:00.772Z,47.75
2023-04-26T14:58:03.197Z,44.42
2023-04-26T15:02:05.492Z,42.98
2023-04-26T15:04:06.279Z,44.79
2023-04-26T15:08:09.918Z,42.3
2023-04-26T15:12:12.505Z,42.61
2023-04-26T15:14:13.602Z,43.28
2023-04-26T15:18:16.123Z,41.64
2023-04-26T15:22:19.643Z,44.01
2023-04-26T15:24:20.565Z,42.61
2023-04-26T15:28:22.804Z,46.83
2023-04-26T15:30:24.187Z,45.99
2023-04-26T15:34:26.849Z,43.4
2023-04-26T15:38:29.443Z,46.5
2023-04-26T15:40:31.161Z,43.66
2023-04-26T15:44:33.969Z,49.8
2023-04-26T15:46:36.729Z,44.99
2023-04-26T15:50:38.123Z,42.21
2023-04-26T15:54:40.838Z,39.89
2023-04-26T15:56:41.893Z,43
2023-04-26T16:00:44.298Z,46.31
2023-04-26T16:04:47.792Z,41.28
2023-04-26T16:06:48.574Z,39.41
2023-04-26T16:10:51.803Z,42.8
2023-04-26T16:12:52.847Z,42.54
2023-04-26T16:14:54.037Z,46.7
2023-04-26T16:16:55.090Z,46.22
2023-04-26T16:20:57.765Z,44.53
2023-04-26T16:22:58.871Z,43.93
2023-04-26T16:27:01.494Z,44.52
2023-04-26T16:29:02.773Z,43.05
2023-04-26T16:33:05.467Z,43.04
2023-04-26T16:37:07.340Z,40.28
2023-04-26T16:39:09.136Z,41.34
2023-04-26T16:43:11.481Z,38.41
2023-04-26T16:45:13.909Z,37.02
2023-04-26T16:49:15.044Z,37.34
2023-04-26T16:53:17.698Z,37.98
2023-04-26T16:55:18.793Z,38.31
2023-04-26T16:59:22.064Z,36.51
2023-04-26T17:03:25.347Z,35.66
2023-04-26T17:05:26.579Z,35.73
2023-04-26T17:09:28.743Z,38.96
2023-04-26T17:11:30.033Z,39.53
2023-04-26T17:15:32.477Z,39.55
2023-04-26T17:19:35.524Z,40.84
2023-04-26T17:21:36.590Z,39.18
2023-04-26T17:25:39.826Z,43.17
2023-04-26T17:27:41.705Z,45.46
2023-04-26T17:31:43.852Z,45.82
2023-04-26T17:35:47.248Z,51.2
2023-04-26T17:37:49.054Z,49.97
2023-04-26T17:41:51.937Z,49.06
2023-04-26T17:45:55.487Z,51.48
2023-04-26T17:47:57.289Z,50.45
2023-04-26T17:52:00.300Z,52.27
2023-04-26T17:54:01.442Z,51.98
2023-04-26T17:58:04.473Z,53
2023-04-26T18:02:07.406Z,54.25
2023-04-26T18:04:09.171Z,54.58
2023-04-26T18:08:12.040Z,53.54
2023-04-26T18:10:13.498Z,55.71
2023-04-26T18:14:15.810Z,55.15
2023-04-26T18:18:19.074Z,56.98
2023-04-26T18:20:20.706Z,56.85
2023-04-26T18:24:23.668Z,56.74
2023-04-26T18:28:26.778Z,57.29
2023-04-26T18:30:28.675Z,60.33
2023-04-26T18:34:31.423Z,57.44
2023-04-26T18:36:32.840Z,58.92
2023-04-26T18:40:35.750Z,57.84
2023-04-26T18:44:38.658Z,58.23
2023-04-26T18:46:40.490Z,59.73
2023-04-26T18:50:43.390Z,62.07
2023-04-26T18:52:44.661Z,61.83
2023-04-26T18:56:47.266Z,59.56
2023-04-26T19:00:49.925Z,60.97
2023-04-26T19:02:51.154Z,61.67
2023-04-26T19:06:53.952Z,61.07
2023-04-26T19:12:58.787Z,60.74
2023-04-26T19:17:01.393Z,60.28
2023-04-26T19:19:02.623Z,60.82
2023-04-26T19:23:05.359Z,60.09
2023-04-26T19:27:07.725Z,61.46
2023-04-26T19:29:09.481Z,61.6
2023-04-26T19:33:12.633Z,60.18
2023-04-26T19:35:14.224Z,59.58
2023-04-26T19:39:17.511Z,58.47
2023-04-26T19:45:22.099Z,56.07
2023-04-26T19:49:27.242Z,61.23
2023-04-26T19:51:27.694Z,66.6
2023-04-26T19:53:28.865Z,68.71
2023-04-26T19:55:30.102Z,65.72
2023-04-26T19:59:32.236Z,60.82
2023-04-26T20:01:33.370Z,61.39
2023-04-26T20:03:34.804Z,60.36
2023-04-26T20:05:36.287Z,59.9
2023-04-26T20:07:37.924Z,60.29
2023-04-26T20:11:40.379Z,65.7
2023-04-26T20:15:42.607Z,64.83
2023-04-26T20:17:43.723Z,64.4
2023-04-26T20:21:46.757Z,64.86
2023-04-26T20:23:48.703Z,64.3
2023-04-26T20:27:51.451Z,64.35
2023-04-26T20:31:54.321Z,64.64
2023-04-26T20:33:56.049Z,63.79
2023-04-26T20:37:59.025Z,64.4
2023-04-26T20:42:02.629Z,63.92
2023-04-26T20:44:04.550Z,64.96
2023-04-26T20:48:08.187Z,67.3
2023-04-26T20:50:09.977Z,68.52
2023-04-26T20:54:12.670Z,70.99
2023-04-26T20:58:15.619Z,73.4
2023-04-26T21:00:17.549Z,74.07
2023-04-26T21:04:20.239Z,73.64
2023-04-26T21:06:21.375Z,72.82
2023-04-26T21:10:24.172Z,72.6
2023-04-26T21:14:27.244Z,72.12
2023-04-26T21:16:28.743Z,71.66
2023-04-26T21:20:31.694Z,72.99
2023-04-26T21:24:34.641Z,75.59
2023-04-26T21:26:35.821Z,78.5
2023-04-26T21:30:39.179Z,79.23
2023-04-26T21:32:40.573Z,79.34
2023-04-26T21:35:26.228Z,78.88
2023-04-26T21:37:28.224Z,79.13
2023-04-26T21:41:30.715Z,80.06
2023-04-26T21:43:32.171Z,79.88
2023-04-26T21:47:34.986Z,80.19
2023-04-26T21:51:38.564Z,78.63
2023-04-26T21:53:39.706Z,78.56
2023-04-26T21:57:42.754Z,77.56
2023-04-26T22:01:45.682Z,77.48
2023-04-26T22:03:46.847Z,77.69
2023-04-26T22:07:50.682Z,76.71
2023-04-26T22:09:52.386Z,77.65
2023-04-26T22:13:54.639Z,77.65
2023-04-26T22:17:57.377Z,78.73
2023-04-26T22:19:58.591Z,79.46
2023-04-26T22:24:01.545Z,80.96
2023-04-26T22:26:02.661Z,80.53
2023-04-26T22:30:16.749Z,80.97
2023-04-26T22:34:08.433Z,80.88
2023-04-26T22:36:10.352Z,81.56
2023-04-26T22:40:13.193Z,80.96
2023-04-26T22:46:18.186Z,81.41
2023-04-26T22:50:21.364Z,80.92
2023-04-26T22:52:31.288Z,80.67
2023-04-26T22:54:24.272Z,80.98
2023-04-26T22:56:25.945Z,80.91
2023-04-26T23:00:28.613Z,80.28
2023-04-26T23:02:30.008Z,80.78
2023-04-26T23:04:32.040Z,81.59
2023-04-26T23:06:33.381Z,82.64
2023-04-26T23:08:34.887Z,83.16
2023-04-26T23:12:37.875Z,82.83
2023-04-26T23:14:39.767Z,83.03
2023-04-26T23:16:41.569Z,83.31
2023-04-26T23:18:42.754Z,83.72
2023-04-26T23:22:45.857Z,84.36
2023-04-26T23:24:47.766Z,84.79
2023-04-26T23:28:51.516Z,85.01
2023-04-26T23:32:54.546Z,85.97
2023-04-26T23:34:55.927Z,86.3
2023-04-26T23:38:59.808Z,86.85
2023-04-26T23:43:03.012Z,87.13
2023-04-26T23:45:04.097Z,86.98
2023-04-26T23:49:07.014Z,86.7
2023-04-26T23:51:08.288Z,87.02
2023-04-26T23:55:10.844Z,87.66
2023-04-26T23:59:14.379Z,87.55
